sensor_id;sensor_type;location;lat;lon;timestamp;pressure;altitude;pressure_sealevel;temperature;humidity
39593;BME280;25286;48.870;9.084;2022-12-10T00:01:59;96791.75;;;0.22;nan
39593;BME280;25286;48.870;9.084;2022-12-10T00:04:25;96789.06;;;0.22;nan
39593;BME280;25286;48.870;9.084;2022-12-10T00:06:51;96790.94;;;0.22;nan
39593;BME280;25286;48.870;9.084;2022-12-10T00:09:18;96789.91;;;0.16;nan
39593;BME280;25286;48.870;9.084;2022-12-10T00:11:45;96784.53;;;0.16;nan
39593;BME280;25286;48.870;9.084;2022-12-10T00:14:12;96784.72;;;0.21;nan
39593;BME280;25286;48.870;9.084;2022-12-10T00:16:39;96789.72;;;0.24;nan
39593;BME280;25286;48.870;9.084;2022-12-10T00:19:05;96788.03;;;0.17;nan
39593;BME280;25286;48.870;9.084;2022-12-10T00:21:32;96789.72;;;0.24;nan
39593;BME280;25286;48.870;9.084;2022-12-10T00:23:59;96794.06;;;0.25;nan
39593;BME280;25286;48.870;9.084;2022-12-10T00:28:52;96796.75;;;0.25;nan
39593;BME280;25286;48.870;9.084;2022-12-10T00:33:45;96799.03;;;0.29;nan
39593;BME280;25286;48.870;9.084;2022-12-10T00:36:16;96788.03;;;0.30;nan
39593;BME280;25286;48.870;9.084;2022-12-10T00:38:42;96793.22;;;0.25;nan
39593;BME280;25286;48.870;9.084;2022-12-10T00:41:09;96799.47;;;0.19;nan
39593;BME280;25286;48.870;9.084;2022-12-10T00:43:35;96790.75;;;0.23;nan
39593;BME280;25286;48.870;9.084;2022-12-10T00:46:02;96789.06;;;0.22;nan
39593;BME280;25286;48.870;9.084;2022-12-10T00:48:28;96789.50;;;0.19;nan
39593;BME280;25286;48.870;9.084;2022-12-10T00:50:58;96786.78;;;0.26;nan
39593;BME280;25286;48.870;9.084;2022-12-10T00:53:26;96786.81;;;0.19;nan
39593;BME280;25286;48.870;9.084;2022-12-10T00:55:52;96795.72;;;0.13;nan
39593;BME280;25286;48.870;9.084;2022-12-10T00:58:19;96792.63;;;0.03;nan
39593;BME280;25286;48.870;9.084;2022-12-10T01:00:45;96808.59;;;0.11;nan
39593;BME280;25286;48.870;9.084;2022-12-10T01:03:12;96794.47;;;0.22;nan
39593;BME280;25286;48.870;9.084;2022-12-10T01:05:38;96808.19;;;0.28;nan
39593;BME280;25286;48.870;9.084;2022-12-10T01:08:04;96810.88;;;0.28;nan
39593;BME280;25286;48.870;9.084;2022-12-10T01:10:31;96809.22;;;0.20;nan
39593;BME280;25286;48.870;9.084;2022-12-10T01:12:57;96821.88;;;0.19;nan
39593;BME280;25286;48.870;9.084;2022-12-10T01:15:24;96818.34;;;0.06;nan
39593;BME280;25286;48.870;9.084;2022-12-10T01:17:50;96821.03;;;0.12;nan
39593;BME280;25286;48.870;9.084;2022-12-10T01:20:16;96822.50;;;0.15;nan
39593;BME280;25286;48.870;9.084;2022-12-10T01:22:43;96821.88;;;0.13;nan
39593;BME280;25286;48.870;9.084;2022-12-10T01:25:09;96823.75;;;0.19;nan
39593;BME280;25286;48.870;9.084;2022-12-10T01:27:35;96830.38;;;0.16;nan
39593;BME280;25286;48.870;9.084;2022-12-10T01:30:02;96832.66;;;0.13;nan
39593;BME280;25286;48.870;9.084;2022-12-10T01:32:28;96839.09;;;0.05;nan
39593;BME280;25286;48.870;9.084;2022-12-10T01:34:54;96837.44;;;-0.03;nan
39593;BME280;25286;48.870;9.084;2022-12-10T01:37:21;96841.19;;;0.10;nan
39593;BME280;25286;48.870;9.084;2022-12-10T01:39:47;96844.72;;;0.10;nan
39593;BME280;25286;48.870;9.084;2022-12-10T01:42:13;96844.91;;;0.15;nan
39593;BME280;25286;48.870;9.084;2022-12-10T01:47:06;96854.84;;;0.21;nan
39593;BME280;25286;48.870;9.084;2022-12-10T01:49:37;96861.50;;;0.19;nan
39593;BME280;25286;48.870;9.084;2022-12-10T01:52:04;96849.03;;;0.18;nan
39593;BME280;25286;48.870;9.084;2022-12-10T01:54:32;96845.72;;;0.16;nan
39593;BME280;25286;48.870;9.084;2022-12-10T01:57:02;96849.06;;;0.11;nan
39593;BME280;25286;48.870;9.084;2022-12-10T01:59:29;96861.50;;;0.19;nan
39593;BME280;25286;48.870;9.084;2022-12-10T02:02:08;96855.06;;;0.13;nan
39593;BME280;25286;48.870;9.084;2022-12-10T02:04:41;96847.41;;;0.10;nan
39593;BME280;25286;48.870;9.084;2022-12-10T02:09:38;96847.81;;;0.14;nan
39593;BME280;25286;48.870;9.084;2022-12-10T02:17:30;96841.81;;;0.05;nan
39593;BME280;25286;48.870;9.084;2022-12-10T02:22:37;96842.00;;;0.17;nan
39593;BME280;25286;48.870;9.084;2022-12-10T02:25:05;96844.47;;;0.32;nan
39593;BME280;25286;48.870;9.084;2022-12-10T02:28:21;96846.97;;;0.27;nan
39593;BME280;25286;48.870;9.084;2022-12-10T02:30:22;96838.47;;;0.16;nan
39593;BME280;25286;48.870;9.084;2022-12-10T02:32:49;96834.53;;;0.12;nan
39593;BME280;25286;48.870;9.084;2022-12-10T02:35:25;96831.41;;;0.22;nan
39593;BME280;25286;48.870;9.084;2022-12-10T02:37:56;96840.94;;;0.18;nan
39593;BME280;25286;48.870;9.084;2022-12-10T02:40:28;96833.91;;;0.04;nan
39593;BME280;25286;48.870;9.084;2022-12-10T02:42:57;96839.09;;;-0.02;nan
39593;BME280;25286;48.870;9.084;2022-12-10T02:45:25;96830.59;;;0.02;nan
39593;BME280;25286;48.870;9.084;2022-12-10T02:47:56;96821.66;;;0.01;nan
39593;BME280;25286;48.870;9.084;2022-12-10T02:50:25;96818.78;;;-0.04;nan
39593;BME280;25286;48.870;9.084;2022-12-10T02:52:51;96816.28;;;0.01;nan
39593;BME280;25286;48.870;9.084;2022-12-10T02:55:19;96815.22;;;-0.05;nan
39593;BME280;25286;48.870;9.084;2022-12-10T03:00:58;96808.78;;;-0.10;nan
39593;BME280;25286;48.870;9.084;2022-12-10T03:03:42;96797.19;;;-0.11;nan
39593;BME280;25286;48.870;9.084;2022-12-10T03:06:14;96798.00;;;-0.10;nan
39593;BME280;25286;48.870;9.084;2022-12-10T03:08:59;96787.84;;;-0.21;nan
39593;BME280;25286;48.870;9.084;2022-12-10T03:11:27;96795.09;;;-0.15;nan
39593;BME280;25286;48.870;9.084;2022-12-10T03:16:26;96801.75;;;-0.11;nan
39593;BME280;25286;48.870;9.084;2022-12-10T03:18:56;96812.53;;;-0.05;nan
39593;BME280;25286;48.870;9.084;2022-12-10T03:21:24;96819.59;;;0.03;nan
39593;BME280;25286;48.870;9.084;2022-12-10T03:23:53;96823.72;;;-0.01;nan
39593;BME280;25286;48.870;9.084;2022-12-10T03:26:19;96821.84;;;-0.14;nan
39593;BME280;25286;48.870;9.084;2022-12-10T03:28:52;96826.22;;;-0.13;nan
39593;BME280;25286;48.870;9.084;2022-12-10T03:31:21;96816.47;;;-0.14;nan
39593;BME280;25286;48.870;9.084;2022-12-10T03:33:48;96812.72;;;-0.19;nan
39593;BME280;25286;48.870;9.084;2022-12-10T03:36:15;96812.31;;;-0.23;nan
39593;BME280;25286;48.870;9.084;2022-12-10T03:38:42;96795.13;;;-0.22;nan
39593;BME280;25286;48.870;9.084;2022-12-10T03:41:09;96792.00;;;-0.26;nan
39593;BME280;25286;48.870;9.084;2022-12-10T03:43:35;96790.94;;;-0.24;nan
39593;BME280;25286;48.870;9.084;2022-12-10T03:46:01;96802.97;;;-0.40;nan
39593;BME280;25286;48.870;9.084;2022-12-10T03:48:28;96801.28;;;-0.48;nan
39593;BME280;25286;48.870;9.084;2022-12-10T03:50:54;96811.66;;;-0.38;nan
39593;BME280;25286;48.870;9.084;2022-12-10T03:53:20;96814.75;;;-0.48;nan
39593;BME280;25286;48.870;9.084;2022-12-10T03:55:47;96829.69;;;-0.45;nan
39593;BME280;25286;48.870;9.084;2022-12-10T03:58:13;96834.22;;;-0.46;nan
39593;BME280;25286;48.870;9.084;2022-12-10T04:00:39;96842.97;;;-0.37;nan
39593;BME280;25286;48.870;9.084;2022-12-10T04:03:06;96844.88;;;-0.31;nan
39593;BME280;25286;48.870;9.084;2022-12-10T04:05:33;96840.06;;;-0.42;nan
39593;BME280;25286;48.870;9.084;2022-12-10T04:07:59;96847.91;;;-0.47;nan
39593;BME280;25286;48.870;9.084;2022-12-10T04:10:25;96843.34;;;-0.54;nan
39593;BME280;25286;48.870;9.084;2022-12-10T04:12:51;96848.50;;;-0.65;nan
39593;BME280;25286;48.870;9.084;2022-12-10T04:15:38;96842.06;;;-0.64;nan
39593;BME280;25286;48.870;9.084;2022-12-10T04:18:23;96850.97;;;-0.70;nan
39593;BME280;25286;48.870;9.084;2022-12-10T04:20:50;96848.72;;;-0.60;nan
39593;BME280;25286;48.870;9.084;2022-12-10T04:23:34;96851.81;;;-0.63;nan
39593;BME280;25286;48.870;9.084;2022-12-10T04:26:19;96851.22;;;-0.59;nan
39593;BME280;25286;48.870;9.084;2022-12-10T04:29:04;96853.91;;;-0.59;nan
39593;BME280;25286;48.870;9.084;2022-12-10T04:31:32;96846.22;;;-0.68;nan
39593;BME280;25286;48.870;9.084;2022-12-10T04:33:58;96852.63;;;-0.69;nan
39593;BME280;25286;48.870;9.084;2022-12-10T04:36:25;96858.47;;;-0.59;nan
39593;BME280;25286;48.870;9.084;2022-12-10T04:38:51;96858.09;;;-0.49;nan
39593;BME280;25286;48.870;9.084;2022-12-10T04:41:17;96869.25;;;-0.59;nan
39593;BME280;25286;48.870;9.084;2022-12-10T04:43:44;96861.38;;;-0.54;nan
39593;BME280;25286;48.870;9.084;2022-12-10T04:46:10;96858.09;;;-0.49;nan
39593;BME280;25286;48.870;9.084;2022-12-10T04:48:37;96862.84;;;-0.52;nan
39593;BME280;25286;48.870;9.084;2022-12-10T04:51:03;96869.69;;;-0.49;nan
39593;BME280;25286;48.870;9.084;2022-12-10T04:53:30;96872.97;;;-0.60;nan
39593;BME280;25286;48.870;9.084;2022-12-10T04:55:56;96877.75;;;-0.56;nan
39593;BME280;25286;48.870;9.084;2022-12-10T04:58:23;96872.56;;;-0.57;nan
39593;BME280;25286;48.870;9.084;2022-12-10T05:00:49;96876.09;;;-0.57;nan
39593;BME280;25286;48.870;9.084;2022-12-10T05:03:15;96873.16;;;-0.62;nan
39593;BME280;25286;48.870;9.084;2022-12-10T05:05:41;96861.16;;;-0.59;nan
39593;BME280;25286;48.870;9.084;2022-12-10T05:08:08;96867.38;;;-0.59;nan
39593;BME280;25286;48.870;9.084;2022-12-10T05:10:34;96856.19;;;-0.62;nan
39593;BME280;25286;48.870;9.084;2022-12-10T05:13:00;96858.88;;;-0.62;nan
39593;BME280;25286;48.870;9.084;2022-12-10T05:15:27;96855.13;;;-0.61;nan
39593;BME280;25286;48.870;9.084;2022-12-10T05:17:53;96860.53;;;-0.61;nan
39593;BME280;25286;48.870;9.084;2022-12-10T05:20:20;96855.13;;;-0.61;nan
39593;BME280;25286;48.870;9.084;2022-12-10T05:22:46;96856.22;;;-0.49;nan
39593;BME280;25286;48.870;9.084;2022-12-10T05:25:31;96864.69;;;-0.52;nan
39593;BME280;25286;48.870;9.084;2022-12-10T05:28:17;96876.34;;;-0.45;nan
39593;BME280;25286;48.870;9.084;2022-12-10T05:30:44;96868.22;;;-0.52;nan
39593;BME280;25286;48.870;9.084;2022-12-10T05:33:10;96876.94;;;-0.49;nan
39593;BME280;25286;48.870;9.084;2022-12-10T05:35:37;96862.63;;;-0.57;nan
39593;BME280;25286;48.870;9.084;2022-12-10T05:38:03;96866.34;;;-0.51;nan
39593;BME280;25286;48.870;9.084;2022-12-10T05:40:29;96873.19;;;-0.55;nan
39593;BME280;25286;48.870;9.084;2022-12-10T05:42:56;96879.97;;;-0.72;nan
39593;BME280;25286;48.870;9.084;2022-12-10T05:45:22;96883.34;;;-0.57;nan
39593;BME280;25286;48.870;9.084;2022-12-10T05:47:48;96886.19;;;-0.65;nan
39593;BME280;25286;48.870;9.084;2022-12-10T05:50:17;96877.34;;;-0.53;nan
39593;BME280;25286;48.870;9.084;2022-12-10T05:52:44;96879.97;;;-0.72;nan
39593;BME280;25286;48.870;9.084;2022-12-10T05:55:10;96887.47;;;-0.68;nan
39593;BME280;25286;48.870;9.084;2022-12-10T05:57:36;96881.25;;;-0.55;nan
39593;BME280;25286;48.870;9.084;2022-12-10T06:00:04;96881.25;;;-0.62;nan
39593;BME280;25286;48.870;9.084;2022-12-10T06:02:38;96877.50;;;-0.67;nan
39593;BME280;25286;48.870;9.084;2022-12-10T06:05:04;96879.91;;;-0.86;nan
39593;BME280;25286;48.870;9.084;2022-12-10T06:07:31;96892.56;;;-0.80;nan
39593;BME280;25286;48.870;9.084;2022-12-10T06:09:57;96896.38;;;-0.61;nan
39593;BME280;25286;48.870;9.084;2022-12-10T06:12:23;96897.19;;;-0.60;nan
39593;BME280;25286;48.870;9.084;2022-12-10T06:14:49;96906.09;;;-0.66;nan
39593;BME280;25286;48.870;9.084;2022-12-10T06:17:16;96906.09;;;-0.66;nan
39593;BME280;25286;48.870;9.084;2022-12-10T06:19:42;96910.63;;;-0.73;nan
39593;BME280;25286;48.870;9.084;2022-12-10T06:22:08;96900.72;;;-0.60;nan
39593;BME280;25286;48.870;9.084;2022-12-10T06:24:34;96906.09;;;-0.73;nan
39593;BME280;25286;48.870;9.084;2022-12-10T06:27:01;96898.47;;;-0.63;nan
39593;BME280;25286;48.870;9.084;2022-12-10T06:29:27;96904.44;;;-0.67;nan
39593;BME280;25286;48.870;9.084;2022-12-10T06:31:53;96910.22;;;-0.70;nan
39593;BME280;25286;48.870;9.084;2022-12-10T06:34:25;96918.44;;;-0.85;nan
39593;BME280;25286;48.870;9.084;2022-12-10T06:36:51;96921.22;;;-0.72;nan
39593;BME280;25286;48.870;9.084;2022-12-10T06:39:17;96912.09;;;-0.64;nan
39593;BME280;25286;48.870;9.084;2022-12-10T06:41:43;96925.56;;;-0.64;nan
39593;BME280;25286;48.870;9.084;2022-12-10T06:44:12;96930.13;;;-0.65;nan
39593;BME280;25286;48.870;9.084;2022-12-10T06:46:41;96924.38;;;-0.55;nan
39593;BME280;25286;48.870;9.084;2022-12-10T06:49:07;96921.06;;;-0.51;nan
39593;BME280;25286;48.870;9.084;2022-12-10T06:51:34;96934.13;;;-0.54;nan
39593;BME280;25286;48.870;9.084;2022-12-10T06:54:00;96928.97;;;-0.49;nan
39593;BME280;25286;48.870;9.084;2022-12-10T06:56:26;96938.94;;;-0.43;nan
39593;BME280;25286;48.870;9.084;2022-12-10T06:58:58;96932.44;;;-0.62;nan
39593;BME280;25286;48.870;9.084;2022-12-10T07:01:25;96929.53;;;-0.60;nan
39593;BME280;25286;48.870;9.084;2022-12-10T07:03:52;96936.22;;;-0.49;nan
39593;BME280;25286;48.870;9.084;2022-12-10T07:06:19;96939.31;;;-0.53;nan
39593;BME280;25286;48.870;9.084;2022-12-10T07:08:47;96929.81;;;-0.48;nan
39593;BME280;25286;48.870;9.084;2022-12-10T07:11:14;96931.84;;;-0.51;nan
39593;BME280;25286;48.870;9.084;2022-12-10T07:13:41;96926.84;;;-0.60;nan
39593;BME280;25286;48.870;9.084;2022-12-10T07:16:14;96929.38;;;-0.52;nan
39593;BME280;25286;48.870;9.084;2022-12-10T07:18:41;96936.84;;;-0.54;nan
39593;BME280;25286;48.870;9.084;2022-12-10T07:21:17;96948.03;;;-0.51;nan
39593;BME280;25286;48.870;9.084;2022-12-10T07:23:44;96944.09;;;-0.55;nan
39593;BME280;25286;48.870;9.084;2022-12-10T07:26:11;96949.72;;;-0.49;nan
39593;BME280;25286;48.870;9.084;2022-12-10T07:28:37;96954.28;;;-0.50;nan
39593;BME280;25286;48.870;9.084;2022-12-10T07:31:04;96958.84;;;-0.44;nan
39593;BME280;25286;48.870;9.084;2022-12-10T07:33:31;96956.69;;;-0.55;nan
39593;BME280;25286;48.870;9.084;2022-12-10T07:35:57;96965.06;;;-0.43;nan
39593;BME280;25286;48.870;9.084;2022-12-10T07:38:23;96962.97;;;-0.41;nan
39593;BME280;25286;48.870;9.084;2022-12-10T07:40:50;96968.16;;;-0.46;nan
39593;BME280;25286;48.870;9.084;2022-12-10T07:43:17;96972.97;;;-0.35;nan
39593;BME280;25286;48.870;9.084;2022-12-10T07:45:43;96972.94;;;-0.42;nan
39593;BME280;25286;48.870;9.084;2022-12-10T07:48:09;96973.34;;;-0.45;nan
39593;BME280;25286;48.870;9.084;2022-12-10T07:50:36;96976.47;;;-0.41;nan
39593;BME280;25286;48.870;9.084;2022-12-10T07:53:03;96974.13;;;-0.51;nan
39593;BME280;25286;48.870;9.084;2022-12-10T07:55:30;96981.44;;;-0.45;nan
39593;BME280;25286;48.870;9.084;2022-12-10T07:57:56;96983.31;;;-0.45;nan
39593;BME280;25286;48.870;9.084;2022-12-10T08:00:22;96984.31;;;-0.46;nan
39593;BME280;25286;48.870;9.084;2022-12-10T08:02:48;96991.19;;;-0.44;nan
39593;BME280;25286;48.870;9.084;2022-12-10T08:05:14;96988.69;;;-0.45;nan
39593;BME280;25286;48.870;9.084;2022-12-10T08:07:41;96987.44;;;-0.43;nan
39593;BME280;25286;48.870;9.084;2022-12-10T08:10:07;97002.16;;;-0.45;nan
39593;BME280;25286;48.870;9.084;2022-12-10T08:12:33;96998.81;;;-0.54;nan
39593;BME280;25286;48.870;9.084;2022-12-10T08:14:59;96998.50;;;-0.72;nan
39593;BME280;25286;48.870;9.084;2022-12-10T08:17:28;97000.31;;;-0.45;nan
39593;BME280;25286;48.870;9.084;2022-12-10T08:19:54;97006.88;;;-0.54;nan
39593;BME280;25286;48.870;9.084;2022-12-10T08:22:21;96995.31;;;-0.48;nan
39593;BME280;25286;48.870;9.084;2022-12-10T08:24:47;96997.38;;;-0.50;nan
39593;BME280;25286;48.870;9.084;2022-12-10T08:27:13;96994.91;;;-0.45;nan
39593;BME280;25286;48.870;9.084;2022-12-10T08:29:39;96999.09;;;-0.36;nan
39593;BME280;25286;48.870;9.084;2022-12-10T08:32:06;96993.66;;;-0.49;nan
39593;BME280;25286;48.870;9.084;2022-12-10T08:34:32;96999.50;;;-0.32;nan
39593;BME280;25286;48.870;9.084;2022-12-10T08:36:58;97000.47;;;-0.46;nan
39593;BME280;25286;48.870;9.084;2022-12-10T08:39:24;96999.06;;;-0.42;nan
39593;BME280;25286;48.870;9.084;2022-12-10T08:41:53;96989.97;;;-0.35;nan
39593;BME280;25286;48.870;9.084;2022-12-10T08:44:20;96994.69;;;-0.50;nan
39593;BME280;25286;48.870;9.084;2022-12-10T08:46:46;96987.00;;;-0.53;nan
39593;BME280;25286;48.870;9.084;2022-12-10T08:49:12;96992.44;;;-0.40;nan
39593;BME280;25286;48.870;9.084;2022-12-10T08:51:39;96989.25;;;-0.57;nan
39593;BME280;25286;48.870;9.084;2022-12-10T08:54:05;97001.06;;;-0.58;nan
39593;BME280;25286;48.870;9.084;2022-12-10T08:56:34;97014.25;;;-0.35;nan
39593;BME280;25286;48.870;9.084;2022-12-10T08:59:05;97012.59;;;-0.29;nan
39593;BME280;25286;48.870;9.084;2022-12-10T09:01:31;97025.25;;;-0.30;nan
39593;BME280;25286;48.870;9.084;2022-12-10T09:03:58;97024.78;;;-0.40;nan
39593;BME280;25286;48.870;9.084;2022-12-10T09:06:24;97027.34;;;-0.18;nan
39593;BME280;25286;48.870;9.084;2022-12-10T09:08:51;97021.34;;;-0.20;nan
39593;BME280;25286;48.870;9.084;2022-12-10T09:11:39;97025.75;;;-0.13;nan
39593;BME280;25286;48.870;9.084;2022-12-10T09:14:04;97021.19;;;-0.06;nan
39593;BME280;25286;48.870;9.084;2022-12-10T09:16:35;97028.69;;;-0.01;nan
39593;BME280;25286;48.870;9.084;2022-12-10T09:19:02;97024.28;;;-0.15;nan
39593;BME280;25286;48.870;9.084;2022-12-10T09:21:28;97022.84;;;-0.11;nan
39593;BME280;25286;48.870;9.084;2022-12-10T09:23:56;97026.97;;;-0.15;nan
39593;BME280;25286;48.870;9.084;2022-12-10T09:26:22;97038.84;;;-0.03;nan
39593;BME280;25286;48.870;9.084;2022-12-10T09:28:49;97035.50;;;-0.05;nan
39593;BME280;25286;48.870;9.084;2022-12-10T09:31:16;97038.03;;;0.03;nan
39593;BME280;25286;48.870;9.084;2022-12-10T09:33:43;97043.53;;;-0.18;nan
39593;BME280;25286;48.870;9.084;2022-12-10T09:36:10;97052.78;;;0.01;nan
39593;BME280;25286;48.870;9.084;2022-12-10T09:38:37;97061.91;;;0.06;nan
39593;BME280;25286;48.870;9.084;2022-12-10T09:41:07;97057.78;;;0.10;nan
39593;BME280;25286;48.870;9.084;2022-12-10T09:46:20;97048.88;;;0.10;nan
39593;BME280;25286;48.870;9.084;2022-12-10T09:53:40;97048.22;;;0.08;nan
39593;BME280;25286;48.870;9.084;2022-12-10T09:56:14;97048.22;;;0.08;nan
39593;BME280;25286;48.870;9.084;2022-12-10T09:58:44;97047.59;;;0.06;nan
39593;BME280;25286;48.870;9.084;2022-12-10T10:01:10;97050.34;;;0.19;nan
39593;BME280;25286;48.870;9.084;2022-12-10T10:03:38;97049.88;;;0.09;nan
39593;BME280;25286;48.870;9.084;2022-12-10T10:06:06;97061.53;;;0.22;nan
39593;BME280;25286;48.870;9.084;2022-12-10T10:08:48;97059.22;;;0.06;nan
39593;BME280;25286;48.870;9.084;2022-12-10T10:11:23;97056.56;;;0.19;nan
39593;BME280;25286;48.870;9.084;2022-12-10T10:13:52;97054.91;;;0.18;nan
39593;BME280;25286;48.870;9.084;2022-12-10T10:16:26;97053.66;;;0.14;nan
39593;BME280;25286;48.870;9.084;2022-12-10T10:21:37;97051.34;;;0.18;nan
39593;BME280;25286;48.870;9.084;2022-12-10T10:24:04;97048.66;;;0.11;nan
39593;BME280;25286;48.870;9.084;2022-12-10T10:26:31;97045.53;;;0.08;nan
39593;BME280;25286;48.870;9.084;2022-12-10T10:29:02;97035.44;;;0.30;nan
39593;BME280;25286;48.870;9.084;2022-12-10T10:31:31;97040.59;;;0.24;nan
39593;BME280;25286;48.870;9.084;2022-12-10T10:34:05;97042.03;;;0.20;nan
39593;BME280;25286;48.870;9.084;2022-12-10T10:36:32;97046.63;;;0.20;nan
39593;BME280;25286;48.870;9.084;2022-12-10T10:39:24;97048.72;;;0.31;nan
39593;BME280;25286;48.870;9.084;2022-12-10T10:41:53;97041.25;;;0.33;nan
39593;BME280;25286;48.870;9.084;2022-12-10T10:44:20;97039.97;;;0.22;nan
39593;BME280;25286;48.870;9.084;2022-12-10T10:46:52;97040.41;;;0.26;nan
39593;BME280;25286;48.870;9.084;2022-12-10T10:51:48;97042.91;;;0.28;nan
39593;BME280;25286;48.870;9.084;2022-12-10T10:54:30;97044.34;;;0.23;nan
39593;BME280;25286;48.870;9.084;2022-12-10T10:56:56;97053.28;;;0.24;nan
39593;BME280;25286;48.870;9.084;2022-12-10T10:59:30;97054.94;;;0.32;nan
39593;BME280;25286;48.870;9.084;2022-12-10T11:01:59;97051.66;;;0.43;nan
39593;BME280;25286;48.870;9.084;2022-12-10T11:07:01;97050.63;;;0.44;nan
39593;BME280;25286;48.870;9.084;2022-12-10T11:09:28;97053.09;;;0.32;nan
39593;BME280;25286;48.870;9.084;2022-12-10T11:11:59;97055.44;;;0.62;nan
39593;BME280;25286;48.870;9.084;2022-12-10T11:14:30;97057.09;;;0.56;nan
39593;BME280;25286;48.870;9.084;2022-12-10T11:17:19;97057.66;;;0.45;nan
39593;BME280;25286;48.870;9.084;2022-12-10T11:19:53;97059.38;;;0.72;nan
39593;BME280;25286;48.870;9.084;2022-12-10T11:22:22;97061.25;;;0.65;nan
39593;BME280;25286;48.870;9.084;2022-12-10T11:24:48;97062.94;;;0.80;nan
39593;BME280;25286;48.870;9.084;2022-12-10T11:30:40;97066.63;;;0.59;nan
39593;BME280;25286;48.870;9.084;2022-12-10T11:50:28;97060.03;;;1.08;nan
39593;BME280;25286;48.870;9.084;2022-12-10T11:58:45;97063.97;;;0.79;nan
39593;BME280;25286;48.870;9.084;2022-12-10T12:06:40;97061.91;;;0.81;nan
39593;BME280;25286;48.870;9.084;2022-12-10T12:09:23;97062.53;;;0.96;nan
39593;BME280;25286;48.870;9.084;2022-12-10T12:14:46;97055.47;;;0.95;nan
39593;BME280;25286;48.870;9.084;2022-12-10T12:17:24;97063.97;;;0.79;nan
39593;BME280;25286;48.870;9.084;2022-12-10T12:19:54;97058.38;;;0.93;nan
39593;BME280;25286;48.870;9.084;2022-12-10T12:24:49;97071.66;;;0.95;nan
39593;BME280;25286;48.870;9.084;2022-12-10T12:27:51;97078.09;;;0.81;nan
39593;BME280;25286;48.870;9.084;2022-12-10T12:35:41;97083.09;;;0.90;nan
39593;BME280;25286;48.870;9.084;2022-12-10T12:40:46;97083.94;;;0.97;nan
39593;BME280;25286;48.870;9.084;2022-12-10T12:43:17;97076.66;;;0.91;nan
39593;BME280;25286;48.870;9.084;2022-12-10T12:45:45;97074.56;;;0.73;nan
39593;BME280;25286;48.870;9.084;2022-12-10T12:50:59;97092.47;;;1.01;nan
39593;BME280;25286;48.870;9.084;2022-12-10T12:53:26;97092.88;;;1.05;nan
39593;BME280;25286;48.870;9.084;2022-12-10T12:56:04;97098.88;;;1.00;nan
39593;BME280;25286;48.870;9.084;2022-12-10T12:58:34;97105.53;;;0.84;nan
39593;BME280;25286;48.870;9.084;2022-12-10T13:02:11;97108.66;;;0.88;nan
39593;BME280;25286;48.870;9.084;2022-12-10T13:04:03;97109.91;;;0.92;nan
39593;BME280;25286;48.870;9.084;2022-12-10T13:06:31;97119.63;;;0.66;nan
39593;BME280;25286;48.870;9.084;2022-12-10T13:11:40;97123.53;;;0.57;nan
39593;BME280;25286;48.870;9.084;2022-12-10T13:24:43;97119.41;;;0.61;nan
39593;BME280;25286;48.870;9.084;2022-12-10T13:29:45;97131.00;;;0.55;nan
39593;BME280;25286;48.870;9.084;2022-12-10T13:32:19;97129.09;;;0.42;nan
39593;BME280;25286;48.870;9.084;2022-12-10T13:34:45;97135.31;;;0.43;nan
39593;BME280;25286;48.870;9.084;2022-12-10T13:40:21;97133.88;;;0.47;nan
39593;BME280;25286;48.870;9.084;2022-12-10T14:02:44;97174.16;;;0.42;nan
39593;BME280;25286;48.870;9.084;2022-12-10T14:08:16;97175.16;;;-0.01;nan
39593;BME280;25286;48.870;9.084;2022-12-10T14:10:43;97185.25;;;0.19;nan
39593;BME280;25286;48.870;9.084;2022-12-10T14:13:11;97178.66;;;0.35;nan
39593;BME280;25286;48.870;9.084;2022-12-10T14:15:38;97183.66;;;0.38;nan
39593;BME280;25286;48.870;9.084;2022-12-10T14:18:11;97191.59;;;0.46;nan
39593;BME280;25286;48.870;9.084;2022-12-10T14:20:42;97191.03;;;0.22;nan
39593;BME280;25286;48.870;9.084;2022-12-10T14:23:22;97197.53;;;0.28;nan
39593;BME280;25286;48.870;9.084;2022-12-10T14:26:05;97196.34;;;0.37;nan
39593;BME280;25286;48.870;9.084;2022-12-10T14:28:32;97200.91;;;0.37;nan
39593;BME280;25286;48.870;9.084;2022-12-10T14:30:59;97198.81;;;0.32;nan
39593;BME280;25286;48.870;9.084;2022-12-10T14:33:25;97195.69;;;0.35;nan
39593;BME280;25286;48.870;9.084;2022-12-10T14:35:52;97207.06;;;0.31;nan
39593;BME280;25286;48.870;9.084;2022-12-10T14:40:47;97205.69;;;0.41;nan
39593;BME280;25286;48.870;9.084;2022-12-10T14:43:15;97208.47;;;0.20;nan
39593;BME280;25286;48.870;9.084;2022-12-10T14:48:13;97219.47;;;0.18;nan
39593;BME280;25286;48.870;9.084;2022-12-10T14:50:39;97221.38;;;0.24;nan
39593;BME280;25286;48.870;9.084;2022-12-10T14:53:11;97224.00;;;0.18;nan
39593;BME280;25286;48.870;9.084;2022-12-10T14:55:37;97226.69;;;0.11;nan
39593;BME280;25286;48.870;9.084;2022-12-10T14:58:04;97227.72;;;0.10;nan
39593;BME280;25286;48.870;9.084;2022-12-10T15:00:32;97232.66;;;0.07;nan
39593;BME280;25286;48.870;9.084;2022-12-10T15:03:00;97228.09;;;0.07;nan
39593;BME280;25286;48.870;9.084;2022-12-10T15:05:28;97234.75;;;0.05;nan
39593;BME280;25286;48.870;9.084;2022-12-10T15:07:57;97237.25;;;0.06;nan
39593;BME280;25286;48.870;9.084;2022-12-10T15:10:28;97230.19;;;0.05;nan
39593;BME280;25286;48.870;9.084;2022-12-10T15:12:56;97236.19;;;0.07;nan
39593;BME280;25286;48.870;9.084;2022-12-10T15:15:24;97238.03;;;0.00;nan
39593;BME280;25286;48.870;9.084;2022-12-10T15:17:59;97238.22;;;-0.02;nan
39593;BME280;25286;48.870;9.084;2022-12-10T15:20:27;97244.00;;;-0.05;nan
39593;BME280;25286;48.870;9.084;2022-12-10T15:23:05;97245.09;;;0.01;nan
39593;BME280;25286;48.870;9.084;2022-12-10T15:25:31;97250.88;;;-0.02;nan
39593;BME280;25286;48.870;9.084;2022-12-10T15:28:20;97248.16;;;-0.02;nan
39593;BME280;25286;48.870;9.084;2022-12-10T15:30:47;97254.34;;;-0.08;nan
39593;BME280;25286;48.870;9.084;2022-12-10T15:34:00;97261.84;;;-0.04;nan
39593;BME280;25286;48.870;9.084;2022-12-10T15:36:52;97261.03;;;-0.04;nan
39593;BME280;25286;48.870;9.084;2022-12-10T15:38:52;97261.16;;;-0.12;nan
39593;BME280;25286;48.870;9.084;2022-12-10T15:41:42;97260.09;;;-0.18;nan
39593;BME280;25286;48.870;9.084;2022-12-10T15:46:49;97252.13;;;-0.26;nan
39593;BME280;25286;48.870;9.084;2022-12-10T15:49:15;97261.50;;;-0.22;nan
39593;BME280;25286;48.870;9.084;2022-12-10T15:51:42;97261.44;;;-0.29;nan
39593;BME280;25286;48.870;9.084;2022-12-10T15:54:19;97258.03;;;-0.37;nan